<?xml version="1.0" encoding="UTF-8" standalone="no" ?>
<gpx xmlns="http://www.topografix.com/GPX/1/1" xmlns:xsi="http://www.w3.org/2001/XMLSchema-instance" xsi:schemaLocation="http://www.topografix.com/GPX/1/1 http://www.topografix.com/GPX/1/1/gpx.xsd" version="1.1" creator="VisuGPX - https://www.visugpx.com">
  <metadata>
    <name>Vélo - Faycelles 16,5km</name>
  </metadata>
  <trk>
    <name><![CDATA[Vélo - Faycelles 16,5km_1]]></name>
    <trkseg>
      <trkpt lat="44.56347" lon="1.98796">
        <ele>305.28</ele>
        <time>2020-11-26T12:41:33.000Z</time>
      </trkpt>
      <trkpt lat="44.56352" lon="1.98802">
        <ele>305.28</ele>
        <time>2020-11-26T12:41:43.000Z</time>
      </trkpt>
      <trkpt lat="44.56357" lon="1.98814">
        <ele>305.28</ele>
        <time>2020-11-26T12:41:52.538Z</time>
      </trkpt>
      <trkpt lat="44.56358" lon="1.98813">
        <ele>305.28</ele>
        <time>2020-11-26T12:42:02.000Z</time>
      </trkpt>
      <trkpt lat="44.56359" lon="1.9881">
        <ele>305.28</ele>
        <time>2020-11-26T12:42:12.000Z</time>
      </trkpt>
      <trkpt lat="44.56368" lon="1.98825">
        <ele>305.28</ele>
        <time>2020-11-26T12:42:22.000Z</time>
      </trkpt>
      <trkpt lat="44.56397" lon="1.98832">
        <ele>305.28</ele>
        <time>2020-11-26T12:42:33.000Z</time>
      </trkpt>
      <trkpt lat="44.56425" lon="1.9883">
        <ele>300.37</ele>
        <time>2020-11-26T12:42:42.687Z</time>
      </trkpt>
      <trkpt lat="44.56446" lon="1.98829">
        <ele>301.38</ele>
        <time>2020-11-26T12:42:51.715Z</time>
      </trkpt>
      <trkpt lat="44.56466" lon="1.98826">
        <ele>303.37</ele>
        <time>2020-11-26T12:43:01.000Z</time>
      </trkpt>
      <trkpt lat="44.56494" lon="1.98824">
        <ele>304.37</ele>
        <time>2020-11-26T12:43:11.000Z</time>
      </trkpt>
      <trkpt lat="44.56521" lon="1.98817">
        <ele>304.13</ele>
        <time>2020-11-26T12:43:20.797Z</time>
      </trkpt>
      <trkpt lat="44.56545" lon="1.9882">
        <ele>305.38</ele>
        <time>2020-11-26T12:43:30.000Z</time>
      </trkpt>
      <trkpt lat="44.56578" lon="1.98815">
        <ele>307.13</ele>
        <time>2020-11-26T12:43:40.107Z</time>
      </trkpt>
      <trkpt lat="44.56602" lon="1.98818">
        <ele>309.38</ele>
        <time>2020-11-26T12:43:50.000Z</time>
      </trkpt>
      <trkpt lat="44.56634" lon="1.98831">
        <ele>308.38</ele>
        <time>2020-11-26T12:43:59.435Z</time>
      </trkpt>
      <trkpt lat="44.56663" lon="1.98839">
        <ele>307.32</ele>
        <time>2020-11-26T12:44:08.546Z</time>
      </trkpt>
      <trkpt lat="44.56686" lon="1.98854">
        <ele>308.62</ele>
        <time>2020-11-26T12:44:18.000Z</time>
      </trkpt>
      <trkpt lat="44.56714" lon="1.9886">
        <ele>311.38</ele>
        <time>2020-11-26T12:44:28.000Z</time>
      </trkpt>
      <trkpt lat="44.56741" lon="1.98849">
        <ele>314.13</ele>
        <time>2020-11-26T12:44:38.000Z</time>
      </trkpt>
      <trkpt lat="44.56773" lon="1.98829">
        <ele>317.13</ele>
        <time>2020-11-26T12:44:47.437Z</time>
      </trkpt>
      <trkpt lat="44.56795" lon="1.98812">
        <ele>318.38</ele>
        <time>2020-11-26T12:44:57.000Z</time>
      </trkpt>
      <trkpt lat="44.56816" lon="1.98791">
        <ele>319.38</ele>
        <time>2020-11-26T12:45:07.000Z</time>
      </trkpt>
      <trkpt lat="44.56803" lon="1.98762">
        <ele>319.39</ele>
        <time>2020-11-26T12:45:17.000Z</time>
      </trkpt>
      <trkpt lat="44.5678" lon="1.98738">
        <ele>320.14</ele>
        <time>2020-11-26T12:45:26.535Z</time>
      </trkpt>
      <trkpt lat="44.56761" lon="1.98718">
        <ele>319.7</ele>
        <time>2020-11-26T12:45:36.000Z</time>
      </trkpt>
      <trkpt lat="44.56739" lon="1.98691">
        <ele>320.38</ele>
        <time>2020-11-26T12:45:45.817Z</time>
      </trkpt>
      <trkpt lat="44.56723" lon="1.98673">
        <ele>322.37</ele>
        <time>2020-11-26T12:45:55.000Z</time>
      </trkpt>
      <trkpt lat="44.56703" lon="1.98645">
        <ele>323.07</ele>
        <time>2020-11-26T12:46:04.528Z</time>
      </trkpt>
      <trkpt lat="44.56689" lon="1.9862">
        <ele>324.39</ele>
        <time>2020-11-26T12:46:14.000Z</time>
      </trkpt>
      <trkpt lat="44.56676" lon="1.98592">
        <ele>324.14</ele>
        <time>2020-11-26T12:46:23.416Z</time>
      </trkpt>
      <trkpt lat="44.56662" lon="1.98565">
        <ele>326.39</ele>
        <time>2020-11-26T12:46:32.766Z</time>
      </trkpt>
      <trkpt lat="44.56649" lon="1.98532">
        <ele>329.39</ele>
        <time>2020-11-26T12:46:41.956Z</time>
      </trkpt>
      <trkpt lat="44.56638" lon="1.98507">
        <ele>332.33</ele>
        <time>2020-11-26T12:46:51.000Z</time>
      </trkpt>
      <trkpt lat="44.56625" lon="1.98471">
        <ele>334.39</ele>
        <time>2020-11-26T12:47:00.848Z</time>
      </trkpt>
      <trkpt lat="44.56611" lon="1.98448">
        <ele>333.39</ele>
        <time>2020-11-26T12:47:10.000Z</time>
      </trkpt>
      <trkpt lat="44.56599" lon="1.98411">
        <ele>335.33</ele>
        <time>2020-11-26T12:47:20.000Z</time>
      </trkpt>
      <trkpt lat="44.5659" lon="1.98374">
        <ele>336.39</ele>
        <time>2020-11-26T12:47:30.000Z</time>
      </trkpt>
      <trkpt lat="44.56584" lon="1.9834">
        <ele>337.39</ele>
        <time>2020-11-26T12:47:39.465Z</time>
      </trkpt>
      <trkpt lat="44.56576" lon="1.98312">
        <ele>338.39</ele>
        <time>2020-11-26T12:47:48.776Z</time>
      </trkpt>
      <trkpt lat="44.56569" lon="1.98281">
        <ele>338.39</ele>
        <time>2020-11-26T12:47:58.000Z</time>
      </trkpt>
      <trkpt lat="44.56562" lon="1.98239">
        <ele>339.39</ele>
        <time>2020-11-26T12:48:07.457Z</time>
      </trkpt>
      <trkpt lat="44.5656" lon="1.98198">
        <ele>341.39</ele>
        <time>2020-11-26T12:48:17.067Z</time>
      </trkpt>
      <trkpt lat="44.5656" lon="1.98159">
        <ele>343.14</ele>
        <time>2020-11-26T12:48:27.000Z</time>
      </trkpt>
      <trkpt lat="44.56556" lon="1.98106">
        <ele>344.4</ele>
        <time>2020-11-26T12:48:36.857Z</time>
      </trkpt>
      <trkpt lat="44.56559" lon="1.98056">
        <ele>341.4</ele>
        <time>2020-11-26T12:48:47.000Z</time>
      </trkpt>
      <trkpt lat="44.56557" lon="1.98002">
        <ele>343.4</ele>
        <time>2020-11-26T12:48:56.070Z</time>
      </trkpt>
      <trkpt lat="44.56554" lon="1.97949">
        <ele>346.38</ele>
        <time>2020-11-26T12:49:05.647Z</time>
      </trkpt>
      <trkpt lat="44.56547" lon="1.97905">
        <ele>344.39</ele>
        <time>2020-11-26T12:49:15.090Z</time>
      </trkpt>
      <trkpt lat="44.5653" lon="1.97866">
        <ele>348.4</ele>
        <time>2020-11-26T12:49:25.071Z</time>
      </trkpt>
      <trkpt lat="44.56507" lon="1.97833">
        <ele>346.4</ele>
        <time>2020-11-26T12:49:35.000Z</time>
      </trkpt>
      <trkpt lat="44.56475" lon="1.97769">
        <ele>344.4</ele>
        <time>2020-11-26T12:49:45.000Z</time>
      </trkpt>
      <trkpt lat="44.56448" lon="1.97702">
        <ele>340.47</ele>
        <time>2020-11-26T12:49:55.000Z</time>
      </trkpt>
      <trkpt lat="44.56414" lon="1.97661">
        <ele>340.16</ele>
        <time>2020-11-26T12:50:05.000Z</time>
      </trkpt>
      <trkpt lat="44.56379" lon="1.97595">
        <ele>338.4</ele>
        <time>2020-11-26T12:50:15.000Z</time>
      </trkpt>
      <trkpt lat="44.56349" lon="1.97524">
        <ele>336.4</ele>
        <time>2020-11-26T12:50:25.000Z</time>
      </trkpt>
      <trkpt lat="44.56326" lon="1.9747">
        <ele>337.39</ele>
        <time>2020-11-26T12:50:35.000Z</time>
      </trkpt>
      <trkpt lat="44.56293" lon="1.97436">
        <ele>335.66</ele>
        <time>2020-11-26T12:50:45.000Z</time>
      </trkpt>
      <trkpt lat="44.56262" lon="1.97401">
        <ele>335.42</ele>
        <time>2020-11-26T12:50:55.000Z</time>
      </trkpt>
      <trkpt lat="44.56226" lon="1.97362">
        <ele>336.34</ele>
        <time>2020-11-26T12:51:04.525Z</time>
      </trkpt>
      <trkpt lat="44.56195" lon="1.97353">
        <ele>337.41</ele>
        <time>2020-11-26T12:51:14.000Z</time>
      </trkpt>
      <trkpt lat="44.56156" lon="1.97332">
        <ele>340.39</ele>
        <time>2020-11-26T12:51:24.000Z</time>
      </trkpt>
      <trkpt lat="44.56146" lon="1.97301">
        <ele>337.65</ele>
        <time>2020-11-26T12:51:34.000Z</time>
      </trkpt>
      <trkpt lat="44.56164" lon="1.97251">
        <ele>335.9</ele>
        <time>2020-11-26T12:51:44.000Z</time>
      </trkpt>
      <trkpt lat="44.56169" lon="1.97206">
        <ele>336.41</ele>
        <time>2020-11-26T12:51:54.000Z</time>
      </trkpt>
      <trkpt lat="44.56171" lon="1.9717">
        <ele>338.41</ele>
        <time>2020-11-26T12:52:03.058Z</time>
      </trkpt>
      <trkpt lat="44.56171" lon="1.97101">
        <ele>332.99</ele>
        <time>2020-11-26T12:52:13.000Z</time>
      </trkpt>
      <trkpt lat="44.56154" lon="1.96987">
        <ele>327.41</ele>
        <time>2020-11-26T12:52:23.000Z</time>
      </trkpt>
      <trkpt lat="44.56155" lon="1.96882">
        <ele>324.93</ele>
        <time>2020-11-26T12:52:33.000Z</time>
      </trkpt>
      <trkpt lat="44.56133" lon="1.96851">
        <ele>328.16</ele>
        <time>2020-11-26T12:52:42.331Z</time>
      </trkpt>
      <trkpt lat="44.56112" lon="1.96817">
        <ele>330.41</ele>
        <time>2020-11-26T12:52:51.696Z</time>
      </trkpt>
      <trkpt lat="44.56095" lon="1.96779">
        <ele>333.17</ele>
        <time>2020-11-26T12:53:01.059Z</time>
      </trkpt>
      <trkpt lat="44.56085" lon="1.96736">
        <ele>335.41</ele>
        <time>2020-11-26T12:53:10.662Z</time>
      </trkpt>
      <trkpt lat="44.56078" lon="1.96705">
        <ele>337.42</ele>
        <time>2020-11-26T12:53:20.000Z</time>
      </trkpt>
      <trkpt lat="44.5607" lon="1.96664">
        <ele>337.4</ele>
        <time>2020-11-26T12:53:29.379Z</time>
      </trkpt>
      <trkpt lat="44.56065" lon="1.96627">
        <ele>337.42</ele>
        <time>2020-11-26T12:53:38.937Z</time>
      </trkpt>
      <trkpt lat="44.56059" lon="1.96594">
        <ele>340.16</ele>
        <time>2020-11-26T12:53:48.000Z</time>
      </trkpt>
      <trkpt lat="44.56049" lon="1.96549">
        <ele>342.42</ele>
        <time>2020-11-26T12:53:58.119Z</time>
      </trkpt>
      <trkpt lat="44.56042" lon="1.9652">
        <ele>345.36</ele>
        <time>2020-11-26T12:54:07.599Z</time>
      </trkpt>
      <trkpt lat="44.56039" lon="1.96497">
        <ele>345.17</ele>
        <time>2020-11-26T12:54:17.000Z</time>
      </trkpt>
      <trkpt lat="44.56057" lon="1.96459">
        <ele>345.36</ele>
        <time>2020-11-26T12:54:27.000Z</time>
      </trkpt>
      <trkpt lat="44.5609" lon="1.96432">
        <ele>343.42</ele>
        <time>2020-11-26T12:54:36.461Z</time>
      </trkpt>
      <trkpt lat="44.56118" lon="1.96388">
        <ele>341.5</ele>
        <time>2020-11-26T12:54:46.000Z</time>
      </trkpt>
      <trkpt lat="44.56155" lon="1.96332">
        <ele>337.85</ele>
        <time>2020-11-26T12:54:56.000Z</time>
      </trkpt>
      <trkpt lat="44.56198" lon="1.96263">
        <ele>334.41</ele>
        <time>2020-11-26T12:55:06.000Z</time>
      </trkpt>
      <trkpt lat="44.56241" lon="1.96189">
        <ele>338.42</ele>
        <time>2020-11-26T12:55:16.000Z</time>
      </trkpt>
      <trkpt lat="44.56281" lon="1.96124">
        <ele>335.44</ele>
        <time>2020-11-26T12:55:26.000Z</time>
      </trkpt>
      <trkpt lat="44.56308" lon="1.96066">
        <ele>334.43</ele>
        <time>2020-11-26T12:55:36.000Z</time>
      </trkpt>
      <trkpt lat="44.56288" lon="1.96035">
        <ele>332.44</ele>
        <time>2020-11-26T12:55:45.070Z</time>
      </trkpt>
      <trkpt lat="44.56242" lon="1.95988">
        <ele>328.26</ele>
        <time>2020-11-26T12:55:55.000Z</time>
      </trkpt>
      <trkpt lat="44.56193" lon="1.95946">
        <ele>328.35</ele>
        <time>2020-11-26T12:56:05.000Z</time>
      </trkpt>
      <trkpt lat="44.56155" lon="1.95914">
        <ele>328.43</ele>
        <time>2020-11-26T12:56:15.000Z</time>
      </trkpt>
      <trkpt lat="44.56125" lon="1.95887">
        <ele>329.43</ele>
        <time>2020-11-26T12:56:25.000Z</time>
      </trkpt>
      <trkpt lat="44.56098" lon="1.95858">
        <ele>327.43</ele>
        <time>2020-11-26T12:56:34.776Z</time>
      </trkpt>
      <trkpt lat="44.5608" lon="1.95841">
        <ele>327.43</ele>
        <time>2020-11-26T12:56:44.097Z</time>
      </trkpt>
      <trkpt lat="44.5606" lon="1.9582">
        <ele>326.43</ele>
        <time>2020-11-26T12:56:53.663Z</time>
      </trkpt>
      <trkpt lat="44.56039" lon="1.958">
        <ele>329.18</ele>
        <time>2020-11-26T12:57:03.000Z</time>
      </trkpt>
      <trkpt lat="44.56016" lon="1.95776">
        <ele>330.42</ele>
        <time>2020-11-26T12:57:12.311Z</time>
      </trkpt>
      <trkpt lat="44.56002" lon="1.95744">
        <ele>329.19</ele>
        <time>2020-11-26T12:57:23.000Z</time>
      </trkpt>
      <trkpt lat="44.55985" lon="1.95709">
        <ele>330.5</ele>
        <time>2020-11-26T12:57:33.000Z</time>
      </trkpt>
      <trkpt lat="44.55973" lon="1.95671">
        <ele>329.43</ele>
        <time>2020-11-26T12:57:43.000Z</time>
      </trkpt>
      <trkpt lat="44.55955" lon="1.95621">
        <ele>328.43</ele>
        <time>2020-11-26T12:57:53.000Z</time>
      </trkpt>
      <trkpt lat="44.55933" lon="1.95569">
        <ele>328.44</ele>
        <time>2020-11-26T12:58:02.688Z</time>
      </trkpt>
      <trkpt lat="44.55925" lon="1.95522">
        <ele>327.44</ele>
        <time>2020-11-26T12:58:12.530Z</time>
      </trkpt>
      <trkpt lat="44.55914" lon="1.95487">
        <ele>325.42</ele>
        <time>2020-11-26T12:58:22.000Z</time>
      </trkpt>
      <trkpt lat="44.55895" lon="1.95451">
        <ele>327.44</ele>
        <time>2020-11-26T12:58:31.487Z</time>
      </trkpt>
      <trkpt lat="44.55872" lon="1.95438">
        <ele>328.68</ele>
        <time>2020-11-26T12:58:41.000Z</time>
      </trkpt>
      <trkpt lat="44.55843" lon="1.95423">
        <ele>328.69</ele>
        <time>2020-11-26T12:58:51.000Z</time>
      </trkpt>
      <trkpt lat="44.55822" lon="1.95419">
        <ele>329.37</ele>
        <time>2020-11-26T12:59:01.000Z</time>
      </trkpt>
      <trkpt lat="44.55795" lon="1.95421">
        <ele>335.18</ele>
        <time>2020-11-26T12:59:11.000Z</time>
      </trkpt>
      <trkpt lat="44.55767" lon="1.95425">
        <ele>338.44</ele>
        <time>2020-11-26T12:59:21.065Z</time>
      </trkpt>
      <trkpt lat="44.5574" lon="1.95426">
        <ele>341.19</ele>
        <time>2020-11-26T12:59:31.138Z</time>
      </trkpt>
      <trkpt lat="44.55721" lon="1.9542">
        <ele>345.19</ele>
        <time>2020-11-26T12:59:40.501Z</time>
      </trkpt>
      <trkpt lat="44.55694" lon="1.95422">
        <ele>352.7</ele>
      </trkpt>
      <trkpt lat="44.55731" lon="1.95355">
        <ele>356.1</ele>
      </trkpt>
      <trkpt lat="44.55752" lon="1.95299">
        <ele>361.1</ele>
      </trkpt>
      <trkpt lat="44.55782" lon="1.95198">
        <ele>367.7</ele>
      </trkpt>
      <trkpt lat="44.55792" lon="1.95119">
        <ele>370.6</ele>
      </trkpt>
      <trkpt lat="44.55794" lon="1.9511">
        <ele>372.44</ele>
        <time>2020-11-26T13:20:04.525Z</time>
      </trkpt>
      <trkpt lat="44.55808" lon="1.95083">
        <ele>372.44</ele>
        <time>2020-11-26T13:20:13.547Z</time>
      </trkpt>
      <trkpt lat="44.55825" lon="1.95045">
        <ele>371.63</ele>
        <time>2020-11-26T13:20:22.747Z</time>
      </trkpt>
      <trkpt lat="44.5585" lon="1.95008">
        <ele>372.44</ele>
        <time>2020-11-26T13:20:33.000Z</time>
      </trkpt>
      <trkpt lat="44.55871" lon="1.94962">
        <ele>372.45</ele>
        <time>2020-11-26T13:20:43.000Z</time>
      </trkpt>
      <trkpt lat="44.55888" lon="1.94893">
        <ele>370.39</ele>
        <time>2020-11-26T13:20:53.000Z</time>
      </trkpt>
      <trkpt lat="44.55903" lon="1.94833">
        <ele>367.7</ele>
        <time>2020-11-26T13:21:03.000Z</time>
      </trkpt>
      <trkpt lat="44.55883" lon="1.94795">
        <ele>367.45</ele>
        <time>2020-11-26T13:21:12.638Z</time>
      </trkpt>
      <trkpt lat="44.55858" lon="1.94746">
        <ele>367.7</ele>
        <time>2020-11-26T13:21:22.000Z</time>
      </trkpt>
      <trkpt lat="44.55823" lon="1.94676">
        <ele>361.77</ele>
        <time>2020-11-26T13:21:32.000Z</time>
      </trkpt>
      <trkpt lat="44.55788" lon="1.946">
        <ele>356.47</ele>
        <time>2020-11-26T13:21:42.000Z</time>
      </trkpt>
      <trkpt lat="44.55801" lon="1.94515">
        <ele>351.78</ele>
        <time>2020-11-26T13:21:52.000Z</time>
      </trkpt>
      <trkpt lat="44.55797" lon="1.94455">
        <ele>350.7</ele>
        <time>2020-11-26T13:22:02.000Z</time>
      </trkpt>
      <trkpt lat="44.55731" lon="1.94493">
        <ele>346.77</ele>
        <time>2020-11-26T13:22:12.000Z</time>
      </trkpt>
      <trkpt lat="44.55664" lon="1.94492">
        <ele>339.78</ele>
        <time>2020-11-26T13:22:22.000Z</time>
      </trkpt>
      <trkpt lat="44.55595" lon="1.94452">
        <ele>331.77</ele>
        <time>2020-11-26T13:22:32.000Z</time>
      </trkpt>
      <trkpt lat="44.55532" lon="1.94455">
        <ele>330.7</ele>
        <time>2020-11-26T13:22:42.000Z</time>
      </trkpt>
      <trkpt lat="44.55473" lon="1.94479">
        <ele>325.47</ele>
        <time>2020-11-26T13:22:52.000Z</time>
      </trkpt>
      <trkpt lat="44.55421" lon="1.94546">
        <ele>318.7</ele>
        <time>2020-11-26T13:23:02.000Z</time>
      </trkpt>
      <trkpt lat="44.55388" lon="1.94516">
        <ele>317.51</ele>
        <time>2020-11-26T13:23:12.000Z</time>
      </trkpt>
      <trkpt lat="44.55332" lon="1.94471">
        <ele>309.78</ele>
        <time>2020-11-26T13:23:22.000Z</time>
      </trkpt>
      <trkpt lat="44.55257" lon="1.9445">
        <ele>302.53</ele>
        <time>2020-11-26T13:23:32.000Z</time>
      </trkpt>
      <trkpt lat="44.5519" lon="1.94426">
        <ele>297.52</ele>
        <time>2020-11-26T13:23:42.000Z</time>
      </trkpt>
      <trkpt lat="44.55104" lon="1.94394">
        <ele>288.54</ele>
        <time>2020-11-26T13:23:52.000Z</time>
      </trkpt>
      <trkpt lat="44.55046" lon="1.94399">
        <ele>287.45</ele>
        <time>2020-11-26T13:24:02.000Z</time>
      </trkpt>
      <trkpt lat="44.55018" lon="1.94411">
        <ele>287.45</ele>
        <time>2020-11-26T13:24:11.071Z</time>
      </trkpt>
      <trkpt lat="44.54995" lon="1.94423">
        <ele>286.47</ele>
        <time>2020-11-26T13:24:20.695Z</time>
      </trkpt>
      <trkpt lat="44.54968" lon="1.94435">
        <ele>288.45</ele>
        <time>2020-11-26T13:24:30.329Z</time>
      </trkpt>
      <trkpt lat="44.54929" lon="1.94433">
        <ele>287.69</ele>
        <time>2020-11-26T13:24:40.066Z</time>
      </trkpt>
      <trkpt lat="44.54893" lon="1.94409">
        <ele>287.44</ele>
        <time>2020-11-26T13:24:49.074Z</time>
      </trkpt>
      <trkpt lat="44.54857" lon="1.94384">
        <ele>287.45</ele>
        <time>2020-11-26T13:24:58.803Z</time>
      </trkpt>
      <trkpt lat="44.54824" lon="1.94359">
        <ele>286.47</ele>
        <time>2020-11-26T13:25:08.000Z</time>
      </trkpt>
      <trkpt lat="44.54791" lon="1.94333">
        <ele>284.5</ele>
        <time>2020-11-26T13:25:18.000Z</time>
      </trkpt>
      <trkpt lat="44.5476" lon="1.94311">
        <ele>285.18</ele>
        <time>2020-11-26T13:25:28.000Z</time>
      </trkpt>
      <trkpt lat="44.54716" lon="1.94279">
        <ele>286.27</ele>
        <time>2020-11-26T13:25:38.000Z</time>
      </trkpt>
      <trkpt lat="44.54671" lon="1.94271">
        <ele>282.67</ele>
        <time>2020-11-26T13:25:48.000Z</time>
      </trkpt>
      <trkpt lat="44.54616" lon="1.94287">
        <ele>281.52</ele>
        <time>2020-11-26T13:25:58.000Z</time>
      </trkpt>
      <trkpt lat="44.54575" lon="1.94286">
        <ele>280.52</ele>
        <time>2020-11-26T13:26:08.000Z</time>
      </trkpt>
      <trkpt lat="44.54535" lon="1.94284">
        <ele>280.45</ele>
        <time>2020-11-26T13:26:18.000Z</time>
      </trkpt>
      <trkpt lat="44.54491" lon="1.94302">
        <ele>281.41</ele>
        <time>2020-11-26T13:26:28.000Z</time>
      </trkpt>
      <trkpt lat="44.54444" lon="1.94338">
        <ele>282.39</ele>
        <time>2020-11-26T13:26:38.000Z</time>
      </trkpt>
      <trkpt lat="44.544" lon="1.94374">
        <ele>281.45</ele>
        <time>2020-11-26T13:26:48.000Z</time>
      </trkpt>
      <trkpt lat="44.54357" lon="1.94408">
        <ele>279.51</ele>
        <time>2020-11-26T13:26:58.000Z</time>
      </trkpt>
      <trkpt lat="44.54305" lon="1.94407">
        <ele>274.52</ele>
        <time>2020-11-26T13:27:08.000Z</time>
      </trkpt>
      <trkpt lat="44.54261" lon="1.94402">
        <ele>271.22</ele>
        <time>2020-11-26T13:27:18.000Z</time>
      </trkpt>
      <trkpt lat="44.54217" lon="1.94415">
        <ele>272.7</ele>
        <time>2020-11-26T13:27:28.000Z</time>
      </trkpt>
      <trkpt lat="44.5417" lon="1.94427">
        <ele>270.72</ele>
        <time>2020-11-26T13:27:38.000Z</time>
      </trkpt>
      <trkpt lat="44.54121" lon="1.94433">
        <ele>269.64</ele>
        <time>2020-11-26T13:27:48.000Z</time>
      </trkpt>
      <trkpt lat="44.54061" lon="1.94426">
        <ele>267.53</ele>
        <time>2020-11-26T13:27:58.000Z</time>
      </trkpt>
      <trkpt lat="44.54005" lon="1.94407">
        <ele>264.51</ele>
        <time>2020-11-26T13:28:08.000Z</time>
      </trkpt>
      <trkpt lat="44.53959" lon="1.94338">
        <ele>261.41</ele>
        <time>2020-11-26T13:28:18.000Z</time>
      </trkpt>
      <trkpt lat="44.53914" lon="1.94284">
        <ele>257.24</ele>
        <time>2020-11-26T13:28:28.000Z</time>
      </trkpt>
      <trkpt lat="44.53857" lon="1.94243">
        <ele>259.45</ele>
        <time>2020-11-26T13:28:38.000Z</time>
      </trkpt>
      <trkpt lat="44.53795" lon="1.9423">
        <ele>253.52</ele>
        <time>2020-11-26T13:28:48.000Z</time>
      </trkpt>
      <trkpt lat="44.53729" lon="1.94185">
        <ele>252.45</ele>
        <time>2020-11-26T13:28:58.000Z</time>
      </trkpt>
      <trkpt lat="44.53676" lon="1.94129">
        <ele>248.63</ele>
        <time>2020-11-26T13:29:08.000Z</time>
      </trkpt>
      <trkpt lat="44.53614" lon="1.94151">
        <ele>242.46</ele>
        <time>2020-11-26T13:29:18.000Z</time>
      </trkpt>
      <trkpt lat="44.5354" lon="1.9419">
        <ele>240.52</ele>
        <time>2020-11-26T13:29:28.000Z</time>
      </trkpt>
      <trkpt lat="44.53478" lon="1.94248">
        <ele>237.46</ele>
        <time>2020-11-26T13:29:38.000Z</time>
      </trkpt>
      <trkpt lat="44.53421" lon="1.94288">
        <ele>232.48</ele>
        <time>2020-11-26T13:29:48.000Z</time>
      </trkpt>
      <trkpt lat="44.53354" lon="1.94272">
        <ele>229.41</ele>
        <time>2020-11-26T13:29:58.000Z</time>
      </trkpt>
      <trkpt lat="44.53279" lon="1.94286">
        <ele>221.4</ele>
        <time>2020-11-26T13:30:08.000Z</time>
      </trkpt>
      <trkpt lat="44.53212" lon="1.94328">
        <ele>216.71</ele>
        <time>2020-11-26T13:30:18.000Z</time>
      </trkpt>
      <trkpt lat="44.53145" lon="1.94386">
        <ele>208.46</ele>
        <time>2020-11-26T13:30:28.000Z</time>
      </trkpt>
      <trkpt lat="44.53096" lon="1.9448">
        <ele>206.65</ele>
        <time>2020-11-26T13:30:38.000Z</time>
      </trkpt>
      <trkpt lat="44.5306" lon="1.94549">
        <ele>198.47</ele>
        <time>2020-11-26T13:30:48.000Z</time>
      </trkpt>
      <trkpt lat="44.53035" lon="1.94648">
        <ele>195.7</ele>
        <time>2020-11-26T13:30:58.000Z</time>
      </trkpt>
      <trkpt lat="44.53008" lon="1.94733">
        <ele>190.71</ele>
        <time>2020-11-26T13:31:08.000Z</time>
      </trkpt>
      <trkpt lat="44.52994" lon="1.9483">
        <ele>187.46</ele>
        <time>2020-11-26T13:31:18.000Z</time>
      </trkpt>
      <trkpt lat="44.52994" lon="1.94916">
        <ele>185.51</ele>
        <time>2020-11-26T13:31:28.000Z</time>
      </trkpt>
      <trkpt lat="44.53011" lon="1.94987">
        <ele>186.19</ele>
        <time>2020-11-26T13:31:38.000Z</time>
      </trkpt>
      <trkpt lat="44.52994" lon="1.95036">
        <ele>183.44</ele>
        <time>2020-11-26T13:31:48.000Z</time>
      </trkpt>
      <trkpt lat="44.52977" lon="1.95112">
        <ele>178.52</ele>
        <time>2020-11-26T13:31:58.000Z</time>
      </trkpt>
      <trkpt lat="44.52945" lon="1.95167">
        <ele>178.42</ele>
        <time>2020-11-26T13:32:08.000Z</time>
      </trkpt>
      <trkpt lat="44.52906" lon="1.95178">
        <ele>183.87</ele>
        <time>2020-11-26T13:32:18.000Z</time>
      </trkpt>
      <trkpt lat="44.52864" lon="1.95195">
        <ele>184.44</ele>
        <time>2020-11-26T13:32:28.000Z</time>
      </trkpt>
      <trkpt lat="44.52832" lon="1.95223">
        <ele>185.44</ele>
        <time>2020-11-26T13:32:38.000Z</time>
      </trkpt>
      <trkpt lat="44.52795" lon="1.95253">
        <ele>187.42</ele>
        <time>2020-11-26T13:32:49.000Z</time>
      </trkpt>
      <trkpt lat="44.52771" lon="1.95286">
        <ele>188.44</ele>
        <time>2020-11-26T13:33:00.000Z</time>
      </trkpt>
      <trkpt lat="44.52768" lon="1.95326">
        <ele>189.37</ele>
        <time>2020-11-26T13:33:10.000Z</time>
      </trkpt>
      <trkpt lat="44.52757" lon="1.95359">
        <ele>192.18</ele>
        <time>2020-11-26T13:33:19.066Z</time>
      </trkpt>
      <trkpt lat="44.52733" lon="1.95368">
        <ele>192.19</ele>
        <time>2020-11-26T13:33:29.000Z</time>
      </trkpt>
      <trkpt lat="44.52699" lon="1.9538">
        <ele>193.43</ele>
        <time>2020-11-26T13:33:39.000Z</time>
      </trkpt>
      <trkpt lat="44.52699" lon="1.95426">
        <ele>195.43</ele>
        <time>2020-11-26T13:33:49.000Z</time>
      </trkpt>
      <trkpt lat="44.52715" lon="1.95465">
        <ele>193.7</ele>
        <time>2020-11-26T13:33:59.000Z</time>
      </trkpt>
      <trkpt lat="44.52734" lon="1.95528">
        <ele>191.45</ele>
        <time>2020-11-26T13:34:09.000Z</time>
      </trkpt>
      <trkpt lat="44.52738" lon="1.95604">
        <ele>189.17</ele>
        <time>2020-11-26T13:34:19.000Z</time>
      </trkpt>
      <trkpt lat="44.52733" lon="1.95637">
        <ele>186.49</ele>
        <time>2020-11-26T13:34:29.000Z</time>
      </trkpt>
      <trkpt lat="44.52712" lon="1.95643">
        <ele>181.18</ele>
        <time>2020-11-26T13:34:39.000Z</time>
      </trkpt>
      <trkpt lat="44.52688" lon="1.95681">
        <ele>180.43</ele>
        <time>2020-11-26T13:34:48.676Z</time>
      </trkpt>
      <trkpt lat="44.52666" lon="1.95719">
        <ele>180.68</ele>
        <time>2020-11-26T13:34:57.821Z</time>
      </trkpt>
      <trkpt lat="44.52647" lon="1.95737">
        <ele>178.49</ele>
        <time>2020-11-26T13:35:07.000Z</time>
      </trkpt>
      <trkpt lat="44.52617" lon="1.95761">
        <ele>176.74</ele>
        <time>2020-11-26T13:35:17.000Z</time>
      </trkpt>
      <trkpt lat="44.52588" lon="1.95785">
        <ele>166.68</ele>
        <time>2020-11-26T13:35:27.000Z</time>
      </trkpt>
      <trkpt lat="44.5255" lon="1.95828">
        <ele>160.51</ele>
        <time>2020-11-26T13:35:37.000Z</time>
      </trkpt>
      <trkpt lat="44.52523" lon="1.95851">
        <ele>159.42</ele>
        <time>2020-11-26T13:35:48.000Z</time>
      </trkpt>
      <trkpt lat="44.52524" lon="1.95852">
        <ele>159.43</ele>
        <time>2020-11-26T13:35:58.000Z</time>
      </trkpt>
      <trkpt lat="44.52525" lon="1.95852">
        <ele>159.43</ele>
        <time>2020-11-26T13:36:08.000Z</time>
      </trkpt>
      <trkpt lat="44.52525" lon="1.95854">
        <ele>160.47</ele>
        <time>2020-11-26T13:38:02.000Z</time>
      </trkpt>
      <trkpt lat="44.52529" lon="1.95866">
        <ele>160.42</ele>
        <time>2020-11-26T13:38:11.277Z</time>
      </trkpt>
      <trkpt lat="44.52537" lon="1.95904">
        <ele>161.18</ele>
        <time>2020-11-26T13:38:20.435Z</time>
      </trkpt>
      <trkpt lat="44.52546" lon="1.95941">
        <ele>160.43</ele>
        <time>2020-11-26T13:38:30.000Z</time>
      </trkpt>
      <trkpt lat="44.52559" lon="1.95988">
        <ele>159.42</ele>
        <time>2020-11-26T13:38:40.000Z</time>
      </trkpt>
      <trkpt lat="44.52571" lon="1.96035">
        <ele>159.49</ele>
        <time>2020-11-26T13:38:50.000Z</time>
      </trkpt>
      <trkpt lat="44.52584" lon="1.96086">
        <ele>159.42</ele>
        <time>2020-11-26T13:39:00.109Z</time>
      </trkpt>
      <trkpt lat="44.52595" lon="1.96115">
        <ele>160.67</ele>
        <time>2020-11-26T13:39:10.000Z</time>
      </trkpt>
      <trkpt lat="44.52597" lon="1.96121">
        <ele>159.42</ele>
        <time>2020-11-26T13:39:20.000Z</time>
      </trkpt>
      <trkpt lat="44.52612" lon="1.96166">
        <ele>160.42</ele>
        <time>2020-11-26T13:39:29.497Z</time>
      </trkpt>
      <trkpt lat="44.52629" lon="1.96205">
        <ele>158.67</ele>
        <time>2020-11-26T13:39:39.000Z</time>
      </trkpt>
      <trkpt lat="44.52653" lon="1.96254">
        <ele>159.19</ele>
        <time>2020-11-26T13:39:48.528Z</time>
      </trkpt>
      <trkpt lat="44.52679" lon="1.96287">
        <ele>159.42</ele>
        <time>2020-11-26T13:39:58.000Z</time>
      </trkpt>
      <trkpt lat="44.5272" lon="1.96325">
        <ele>155.4</ele>
        <time>2020-11-26T13:40:09.000Z</time>
      </trkpt>
      <trkpt lat="44.52753" lon="1.96354">
        <ele>157.42</ele>
        <time>2020-11-26T13:40:18.094Z</time>
      </trkpt>
      <trkpt lat="44.5278" lon="1.96391">
        <ele>156.42</ele>
        <time>2020-11-26T13:40:27.364Z</time>
      </trkpt>
      <trkpt lat="44.52809" lon="1.96426">
        <ele>159.16</ele>
        <time>2020-11-26T13:40:38.000Z</time>
      </trkpt>
      <trkpt lat="44.52839" lon="1.96461">
        <ele>162.4</ele>
        <time>2020-11-26T13:40:47.364Z</time>
      </trkpt>
      <trkpt lat="44.52862" lon="1.96494">
        <ele>160.42</ele>
        <time>2020-11-26T13:40:57.000Z</time>
      </trkpt>
      <trkpt lat="44.52892" lon="1.96532">
        <ele>159.67</ele>
        <time>2020-11-26T13:41:06.267Z</time>
      </trkpt>
      <trkpt lat="44.5292" lon="1.96567">
        <ele>160.4</ele>
        <time>2020-11-26T13:41:16.000Z</time>
      </trkpt>
      <trkpt lat="44.52951" lon="1.96608">
        <ele>160.42</ele>
        <time>2020-11-26T13:41:25.466Z</time>
      </trkpt>
      <trkpt lat="44.52973" lon="1.96641">
        <ele>156.98</ele>
        <time>2020-11-26T13:41:35.000Z</time>
      </trkpt>
      <trkpt lat="44.53001" lon="1.96679">
        <ele>160.16</ele>
        <time>2020-11-26T13:41:45.000Z</time>
      </trkpt>
      <trkpt lat="44.53032" lon="1.96733">
        <ele>160.41</ele>
        <time>2020-11-26T13:41:55.000Z</time>
      </trkpt>
      <trkpt lat="44.53059" lon="1.96785">
        <ele>162.41</ele>
        <time>2020-11-26T13:42:05.115Z</time>
      </trkpt>
      <trkpt lat="44.53085" lon="1.96821">
        <ele>160.35</ele>
        <time>2020-11-26T13:42:15.000Z</time>
      </trkpt>
      <trkpt lat="44.53113" lon="1.96862">
        <ele>159.41</ele>
        <time>2020-11-26T13:42:25.000Z</time>
      </trkpt>
      <trkpt lat="44.53136" lon="1.96907">
        <ele>159.41</ele>
        <time>2020-11-26T13:42:35.000Z</time>
      </trkpt>
      <trkpt lat="44.5316" lon="1.96941">
        <ele>156.44</ele>
        <time>2020-11-26T13:42:44.060Z</time>
      </trkpt>
      <trkpt lat="44.53189" lon="1.96972">
        <ele>159.35</ele>
        <time>2020-11-26T13:42:53.498Z</time>
      </trkpt>
      <trkpt lat="44.53214" lon="1.97003">
        <ele>159.41</ele>
        <time>2020-11-26T13:43:03.000Z</time>
      </trkpt>
      <trkpt lat="44.53243" lon="1.97042">
        <ele>157.43</ele>
        <time>2020-11-26T13:43:13.000Z</time>
      </trkpt>
      <trkpt lat="44.53273" lon="1.97083">
        <ele>160.41</ele>
        <time>2020-11-26T13:43:23.000Z</time>
      </trkpt>
      <trkpt lat="44.53301" lon="1.97121">
        <ele>161.14</ele>
        <time>2020-11-26T13:43:32.277Z</time>
      </trkpt>
      <trkpt lat="44.53331" lon="1.97146">
        <ele>159.41</ele>
        <time>2020-11-26T13:43:42.000Z</time>
      </trkpt>
      <trkpt lat="44.53363" lon="1.97176">
        <ele>159.4</ele>
        <time>2020-11-26T13:43:51.103Z</time>
      </trkpt>
      <trkpt lat="44.53395" lon="1.97201">
        <ele>159.34</ele>
        <time>2020-11-26T13:44:00.241Z</time>
      </trkpt>
      <trkpt lat="44.53434" lon="1.9723">
        <ele>161.34</ele>
        <time>2020-11-26T13:44:10.000Z</time>
      </trkpt>
      <trkpt lat="44.53472" lon="1.9725">
        <ele>161.91</ele>
        <time>2020-11-26T13:44:20.000Z</time>
      </trkpt>
      <trkpt lat="44.53504" lon="1.97217">
        <ele>160.66</ele>
        <time>2020-11-26T13:44:31.000Z</time>
      </trkpt>
      <trkpt lat="44.53533" lon="1.97168">
        <ele>159.47</ele>
        <time>2020-11-26T13:44:41.000Z</time>
      </trkpt>
      <trkpt lat="44.53559" lon="1.97123">
        <ele>159.39</ele>
        <time>2020-11-26T13:44:51.000Z</time>
      </trkpt>
      <trkpt lat="44.53591" lon="1.9708">
        <ele>159.41</ele>
        <time>2020-11-26T13:45:00.328Z</time>
      </trkpt>
      <trkpt lat="44.53623" lon="1.97066">
        <ele>158.42</ele>
        <time>2020-11-26T13:45:10.111Z</time>
      </trkpt>
      <trkpt lat="44.5367" lon="1.97065">
        <ele>154.49</ele>
        <time>2020-11-26T13:45:20.000Z</time>
      </trkpt>
      <trkpt lat="44.53709" lon="1.97078">
        <ele>159.41</ele>
        <time>2020-11-26T13:45:30.000Z</time>
      </trkpt>
      <trkpt lat="44.53741" lon="1.97127">
        <ele>160.47</ele>
        <time>2020-11-26T13:45:40.000Z</time>
      </trkpt>
      <trkpt lat="44.53781" lon="1.97122">
        <ele>163.39</ele>
        <time>2020-11-26T13:45:50.000Z</time>
      </trkpt>
      <trkpt lat="44.53812" lon="1.97158">
        <ele>163.47</ele>
        <time>2020-11-26T13:45:59.701Z</time>
      </trkpt>
      <trkpt lat="44.53837" lon="1.97166">
        <ele>162.99</ele>
        <time>2020-11-26T13:46:09.000Z</time>
      </trkpt>
      <trkpt lat="44.53861" lon="1.97193">
        <ele>166.41</ele>
        <time>2020-11-26T13:46:18.600Z</time>
      </trkpt>
      <trkpt lat="44.53874" lon="1.97244">
        <ele>163.41</ele>
        <time>2020-11-26T13:46:29.000Z</time>
      </trkpt>
      <trkpt lat="44.53903" lon="1.97301">
        <ele>169.34</ele>
        <time>2020-11-26T13:46:39.000Z</time>
      </trkpt>
      <trkpt lat="44.53928" lon="1.97363">
        <ele>165.78</ele>
        <time>2020-11-26T13:46:49.000Z</time>
      </trkpt>
      <trkpt lat="44.53947" lon="1.97417">
        <ele>164.42</ele>
        <time>2020-11-26T13:46:59.000Z</time>
      </trkpt>
      <trkpt lat="44.53969" lon="1.97479">
        <ele>166.32</ele>
        <time>2020-11-26T13:47:09.000Z</time>
      </trkpt>
      <trkpt lat="44.53992" lon="1.97535">
        <ele>166.4</ele>
        <time>2020-11-26T13:47:19.000Z</time>
      </trkpt>
      <trkpt lat="44.54009" lon="1.9759">
        <ele>165.4</ele>
        <time>2020-11-26T13:47:28.569Z</time>
      </trkpt>
      <trkpt lat="44.54031" lon="1.97636">
        <ele>167.4</ele>
        <time>2020-11-26T13:47:38.000Z</time>
      </trkpt>
      <trkpt lat="44.54057" lon="1.9768">
        <ele>167.4</ele>
        <time>2020-11-26T13:47:47.318Z</time>
      </trkpt>
      <trkpt lat="44.54079" lon="1.97721">
        <ele>166.65</ele>
        <time>2020-11-26T13:47:57.000Z</time>
      </trkpt>
      <trkpt lat="44.54111" lon="1.97773">
        <ele>163.4</ele>
        <time>2020-11-26T13:48:07.000Z</time>
      </trkpt>
      <trkpt lat="44.54139" lon="1.97817">
        <ele>163.4</ele>
        <time>2020-11-26T13:48:17.000Z</time>
      </trkpt>
      <trkpt lat="44.54168" lon="1.97856">
        <ele>163.46</ele>
        <time>2020-11-26T13:48:27.000Z</time>
      </trkpt>
      <trkpt lat="44.54214" lon="1.97901">
        <ele>165.15</ele>
        <time>2020-11-26T13:48:37.000Z</time>
      </trkpt>
      <trkpt lat="44.54253" lon="1.97934">
        <ele>166.33</ele>
        <time>2020-11-26T13:48:47.000Z</time>
      </trkpt>
      <trkpt lat="44.54292" lon="1.97967">
        <ele>163.71</ele>
        <time>2020-11-26T13:48:57.000Z</time>
      </trkpt>
      <trkpt lat="44.54322" lon="1.98004">
        <ele>166.33</ele>
        <time>2020-11-26T13:49:07.065Z</time>
      </trkpt>
      <trkpt lat="44.54349" lon="1.98039">
        <ele>164.89</ele>
        <time>2020-11-26T13:49:17.000Z</time>
      </trkpt>
      <trkpt lat="44.54407" lon="1.98073">
        <ele>163.41</ele>
        <time>2020-11-26T13:49:27.000Z</time>
      </trkpt>
      <trkpt lat="44.54455" lon="1.98097">
        <ele>163.39</ele>
        <time>2020-11-26T13:49:37.000Z</time>
      </trkpt>
      <trkpt lat="44.54498" lon="1.98118">
        <ele>160.36</ele>
        <time>2020-11-26T13:49:47.000Z</time>
      </trkpt>
      <trkpt lat="44.54533" lon="1.98142">
        <ele>160.39</ele>
        <time>2020-11-26T13:49:56.066Z</time>
      </trkpt>
      <trkpt lat="44.54565" lon="1.98174">
        <ele>161.39</ele>
        <time>2020-11-26T13:50:05.370Z</time>
      </trkpt>
      <trkpt lat="44.54593" lon="1.98203">
        <ele>160.39</ele>
        <time>2020-11-26T13:50:15.000Z</time>
      </trkpt>
      <trkpt lat="44.54628" lon="1.98237">
        <ele>160.38</ele>
        <time>2020-11-26T13:50:24.099Z</time>
      </trkpt>
      <trkpt lat="44.54659" lon="1.98278">
        <ele>161.39</ele>
        <time>2020-11-26T13:50:33.777Z</time>
      </trkpt>
      <trkpt lat="44.54689" lon="1.98306">
        <ele>163.39</ele>
        <time>2020-11-26T13:50:42.926Z</time>
      </trkpt>
      <trkpt lat="44.54718" lon="1.98327">
        <ele>163.45</ele>
        <time>2020-11-26T13:50:52.000Z</time>
      </trkpt>
      <trkpt lat="44.54748" lon="1.98352">
        <ele>162.76</ele>
        <time>2020-11-26T13:51:02.000Z</time>
      </trkpt>
      <trkpt lat="44.54783" lon="1.98381">
        <ele>159.35</ele>
        <time>2020-11-26T13:51:12.000Z</time>
      </trkpt>
      <trkpt lat="44.54816" lon="1.98404">
        <ele>161.64</ele>
        <time>2020-11-26T13:51:21.510Z</time>
      </trkpt>
      <trkpt lat="44.54848" lon="1.98429">
        <ele>162.39</ele>
        <time>2020-11-26T13:51:30.666Z</time>
      </trkpt>
      <trkpt lat="44.54877" lon="1.98447">
        <ele>163.39</ele>
        <time>2020-11-26T13:51:40.000Z</time>
      </trkpt>
      <trkpt lat="44.5491" lon="1.98485">
        <ele>163.39</ele>
        <time>2020-11-26T13:51:49.039Z</time>
      </trkpt>
      <trkpt lat="44.54939" lon="1.9852">
        <ele>160.87</ele>
        <time>2020-11-26T13:51:59.000Z</time>
      </trkpt>
      <trkpt lat="44.54977" lon="1.98553">
        <ele>159.39</ele>
        <time>2020-11-26T13:52:08.512Z</time>
      </trkpt>
      <trkpt lat="44.55006" lon="1.98585">
        <ele>160.39</ele>
        <time>2020-11-26T13:52:17.744Z</time>
      </trkpt>
      <trkpt lat="44.55024" lon="1.98604">
        <ele>162.14</ele>
        <time>2020-11-26T13:52:27.000Z</time>
      </trkpt>
      <trkpt lat="44.55049" lon="1.98629">
        <ele>165.32</ele>
        <time>2020-11-26T13:52:37.000Z</time>
      </trkpt>
      <trkpt lat="44.55073" lon="1.98655">
        <ele>166.37</ele>
        <time>2020-11-26T13:52:47.000Z</time>
      </trkpt>
      <trkpt lat="44.551" lon="1.98679">
        <ele>167.38</ele>
        <time>2020-11-26T13:52:57.000Z</time>
      </trkpt>
      <trkpt lat="44.5513" lon="1.987">
        <ele>166.13</ele>
        <time>2020-11-26T13:53:07.000Z</time>
      </trkpt>
      <trkpt lat="44.55169" lon="1.98714">
        <ele>164.38</ele>
        <time>2020-11-26T13:53:16.706Z</time>
      </trkpt>
      <trkpt lat="44.55212" lon="1.98733">
        <ele>166.39</ele>
        <time>2020-11-26T13:53:26.000Z</time>
      </trkpt>
      <trkpt lat="44.55257" lon="1.98746">
        <ele>168.13</ele>
        <time>2020-11-26T13:53:36.066Z</time>
      </trkpt>
      <trkpt lat="44.55291" lon="1.98762">
        <ele>170.63</ele>
        <time>2020-11-26T13:53:46.000Z</time>
      </trkpt>
      <trkpt lat="44.55332" lon="1.98776">
        <ele>169.45</ele>
        <time>2020-11-26T13:53:56.000Z</time>
      </trkpt>
      <trkpt lat="44.55375" lon="1.9879">
        <ele>166.45</ele>
        <time>2020-11-26T13:54:06.000Z</time>
      </trkpt>
      <trkpt lat="44.55414" lon="1.98809">
        <ele>167.63</ele>
        <time>2020-11-26T13:54:15.093Z</time>
      </trkpt>
      <trkpt lat="44.5544" lon="1.9883">
        <ele>166.63</ele>
        <time>2020-11-26T13:54:25.000Z</time>
      </trkpt>
      <trkpt lat="44.55462" lon="1.98828">
        <ele>167.44</ele>
        <time>2020-11-26T13:54:35.000Z</time>
      </trkpt>
      <trkpt lat="44.55494" lon="1.98798">
        <ele>170.37</ele>
        <time>2020-11-26T13:54:45.072Z</time>
      </trkpt>
      <trkpt lat="44.5552" lon="1.9878">
        <ele>170.38</ele>
        <time>2020-11-26T13:54:54.367Z</time>
      </trkpt>
      <trkpt lat="44.55545" lon="1.98767">
        <ele>174.13</ele>
        <time>2020-11-26T13:55:04.000Z</time>
      </trkpt>
      <trkpt lat="44.55582" lon="1.98771">
        <ele>180.32</ele>
        <time>2020-11-26T13:55:14.000Z</time>
      </trkpt>
      <trkpt lat="44.55606" lon="1.98732">
        <ele>180.4</ele>
        <time>2020-11-26T13:55:23.565Z</time>
      </trkpt>
      <trkpt lat="44.55626" lon="1.98704">
        <ele>182.38</ele>
        <time>2020-11-26T13:55:33.000Z</time>
      </trkpt>
      <trkpt lat="44.55651" lon="1.98695">
        <ele>183.13</ele>
        <time>2020-11-26T13:55:42.465Z</time>
      </trkpt>
      <trkpt lat="44.55679" lon="1.9869">
        <ele>186.13</ele>
        <time>2020-11-26T13:55:52.061Z</time>
      </trkpt>
      <trkpt lat="44.557" lon="1.9869">
        <ele>187.4</ele>
        <time>2020-11-26T13:56:01.089Z</time>
      </trkpt>
      <trkpt lat="44.55721" lon="1.98695">
        <ele>191.38</ele>
        <time>2020-11-26T13:56:11.000Z</time>
      </trkpt>
      <trkpt lat="44.55748" lon="1.98695">
        <ele>195.13</ele>
        <time>2020-11-26T13:56:21.067Z</time>
      </trkpt>
      <trkpt lat="44.55771" lon="1.98684">
        <ele>196.39</ele>
        <time>2020-11-26T13:56:31.000Z</time>
      </trkpt>
      <trkpt lat="44.55794" lon="1.98654">
        <ele>196.32</ele>
        <time>2020-11-26T13:56:41.108Z</time>
      </trkpt>
      <trkpt lat="44.55809" lon="1.98626">
        <ele>198.32</ele>
        <time>2020-11-26T13:56:51.000Z</time>
      </trkpt>
      <trkpt lat="44.55818" lon="1.9859">
        <ele>201.37</ele>
        <time>2020-11-26T13:57:00.855Z</time>
      </trkpt>
      <trkpt lat="44.55822" lon="1.98565">
        <ele>203.38</ele>
        <time>2020-11-26T13:57:10.000Z</time>
      </trkpt>
      <trkpt lat="44.55832" lon="1.98533">
        <ele>202.65</ele>
        <time>2020-11-26T13:57:21.000Z</time>
      </trkpt>
      <trkpt lat="44.55848" lon="1.98516">
        <ele>206.39</ele>
        <time>2020-11-26T13:57:31.000Z</time>
      </trkpt>
      <trkpt lat="44.55874" lon="1.98515">
        <ele>211.37</ele>
        <time>2020-11-26T13:57:41.000Z</time>
      </trkpt>
      <trkpt lat="44.55897" lon="1.98485">
        <ele>210.45</ele>
        <time>2020-11-26T13:57:51.000Z</time>
      </trkpt>
      <trkpt lat="44.55912" lon="1.98447">
        <ele>211.39</ele>
        <time>2020-11-26T13:58:01.000Z</time>
      </trkpt>
      <trkpt lat="44.55926" lon="1.9841">
        <ele>214.39</ele>
        <time>2020-11-26T13:58:11.000Z</time>
      </trkpt>
      <trkpt lat="44.5594" lon="1.98373">
        <ele>216.14</ele>
        <time>2020-11-26T13:58:21.000Z</time>
      </trkpt>
      <trkpt lat="44.55957" lon="1.98338">
        <ele>219.14</ele>
        <time>2020-11-26T13:58:31.000Z</time>
      </trkpt>
      <trkpt lat="44.55975" lon="1.98308">
        <ele>222.27</ele>
        <time>2020-11-26T13:58:41.000Z</time>
      </trkpt>
      <trkpt lat="44.55995" lon="1.98269">
        <ele>225.38</ele>
        <time>2020-11-26T13:58:51.000Z</time>
      </trkpt>
      <trkpt lat="44.56017" lon="1.98255">
        <ele>222.42</ele>
        <time>2020-11-26T13:59:01.000Z</time>
      </trkpt>
      <trkpt lat="44.56041" lon="1.98263">
        <ele>226.15</ele>
        <time>2020-11-26T13:59:11.000Z</time>
      </trkpt>
      <trkpt lat="44.56073" lon="1.98271">
        <ele>228.38</ele>
        <time>2020-11-26T13:59:21.000Z</time>
      </trkpt>
      <trkpt lat="44.56098" lon="1.98257">
        <ele>231.39</ele>
        <time>2020-11-26T13:59:31.000Z</time>
      </trkpt>
      <trkpt lat="44.5612" lon="1.98215">
        <ele>233.14</ele>
        <time>2020-11-26T13:59:41.000Z</time>
      </trkpt>
      <trkpt lat="44.56149" lon="1.98211">
        <ele>233.39</ele>
        <time>2020-11-26T13:59:50.885Z</time>
      </trkpt>
      <trkpt lat="44.56172" lon="1.98223">
        <ele>236.38</ele>
        <time>2020-11-26T14:00:00.000Z</time>
      </trkpt>
      <trkpt lat="44.56203" lon="1.98233">
        <ele>237.39</ele>
        <time>2020-11-26T14:00:09.721Z</time>
      </trkpt>
      <trkpt lat="44.56228" lon="1.98243">
        <ele>238.38</ele>
        <time>2020-11-26T14:00:20.000Z</time>
      </trkpt>
      <trkpt lat="44.56251" lon="1.98222">
        <ele>240.39</ele>
        <time>2020-11-26T14:00:30.000Z</time>
      </trkpt>
      <trkpt lat="44.5626" lon="1.98179">
        <ele>242.33</ele>
        <time>2020-11-26T14:00:40.066Z</time>
      </trkpt>
      <trkpt lat="44.56265" lon="1.98141">
        <ele>246.12</ele>
        <time>2020-11-26T14:00:50.000Z</time>
      </trkpt>
      <trkpt lat="44.56261" lon="1.98101">
        <ele>251.39</ele>
        <time>2020-11-26T14:01:00.000Z</time>
      </trkpt>
      <trkpt lat="44.56242" lon="1.98071">
        <ele>253.13</ele>
        <time>2020-11-26T14:01:10.000Z</time>
      </trkpt>
      <trkpt lat="44.56229" lon="1.98038">
        <ele>260.08</ele>
        <time>2020-11-26T14:01:19.070Z</time>
      </trkpt>
      <trkpt lat="44.56237" lon="1.98013">
        <ele>264.4</ele>
        <time>2020-11-26T14:01:29.000Z</time>
      </trkpt>
      <trkpt lat="44.56261" lon="1.98015">
        <ele>270.14</ele>
        <time>2020-11-26T14:01:38.122Z</time>
      </trkpt>
      <trkpt lat="44.56284" lon="1.9803">
        <ele>271.4</ele>
        <time>2020-11-26T14:01:48.062Z</time>
      </trkpt>
      <trkpt lat="44.56313" lon="1.98036">
        <ele>276.4</ele>
        <time>2020-11-26T14:01:57.595Z</time>
      </trkpt>
      <trkpt lat="44.56337" lon="1.98042">
        <ele>277.44</ele>
        <time>2020-11-26T14:02:07.000Z</time>
      </trkpt>
      <trkpt lat="44.56367" lon="1.98062">
        <ele>280.39</ele>
        <time>2020-11-26T14:02:16.870Z</time>
      </trkpt>
      <trkpt lat="44.56388" lon="1.98082">
        <ele>279.41</ele>
        <time>2020-11-26T14:02:26.000Z</time>
      </trkpt>
      <trkpt lat="44.56409" lon="1.98128">
        <ele>276.18</ele>
        <time>2020-11-26T14:02:37.000Z</time>
      </trkpt>
      <trkpt lat="44.56422" lon="1.98169">
        <ele>278.13</ele>
        <time>2020-11-26T14:02:47.000Z</time>
      </trkpt>
      <trkpt lat="44.5643" lon="1.98217">
        <ele>281.13</ele>
        <time>2020-11-26T14:02:57.000Z</time>
      </trkpt>
      <trkpt lat="44.56426" lon="1.98268">
        <ele>282.33</ele>
        <time>2020-11-26T14:03:07.110Z</time>
      </trkpt>
      <trkpt lat="44.56417" lon="1.98311">
        <ele>285.39</ele>
        <time>2020-11-26T14:03:18.000Z</time>
      </trkpt>
      <trkpt lat="44.5641" lon="1.9836">
        <ele>289.14</ele>
        <time>2020-11-26T14:03:28.000Z</time>
      </trkpt>
      <trkpt lat="44.56419" lon="1.98412">
        <ele>290.39</ele>
        <time>2020-11-26T14:03:38.000Z</time>
      </trkpt>
      <trkpt lat="44.56433" lon="1.98457">
        <ele>291.39</ele>
        <time>2020-11-26T14:03:48.000Z</time>
      </trkpt>
      <trkpt lat="44.5645" lon="1.98501">
        <ele>292.39</ele>
        <time>2020-11-26T14:03:58.756Z</time>
      </trkpt>
      <trkpt lat="44.5646" lon="1.98533">
        <ele>296.12</ele>
        <time>2020-11-26T14:04:09.000Z</time>
      </trkpt>
      <trkpt lat="44.56452" lon="1.9858">
        <ele>300.38</ele>
        <time>2020-11-26T14:04:19.000Z</time>
      </trkpt>
      <trkpt lat="44.56454" lon="1.98636">
        <ele>301.37</ele>
        <time>2020-11-26T14:04:29.000Z</time>
      </trkpt>
      <trkpt lat="44.56443" lon="1.98682">
        <ele>301.39</ele>
        <time>2020-11-26T14:04:39.000Z</time>
      </trkpt>
      <trkpt lat="44.56426" lon="1.98726">
        <ele>301.39</ele>
        <time>2020-11-26T14:04:49.000Z</time>
      </trkpt>
      <trkpt lat="44.56398" lon="1.98752">
        <ele>301.38</ele>
        <time>2020-11-26T14:04:59.000Z</time>
      </trkpt>
      <trkpt lat="44.5637" lon="1.98776">
        <ele>302.37</ele>
        <time>2020-11-26T14:05:09.000Z</time>
      </trkpt>
      <trkpt lat="44.5637" lon="1.98776">
        <ele>302.37</ele>
        <time>2020-11-26T14:05:09.000Z</time>
      </trkpt>
      <trkpt lat="44.5637" lon="1.98776">
        <ele>302.37</ele>
        <time>2020-11-26T14:05:09.000Z</time>
      </trkpt>
      <trkpt lat="44.56351" lon="1.98803">
        <ele>301.45</ele>
        <time>2020-11-26T14:05:18.069Z</time>
      </trkpt>
      <trkpt lat="44.56348" lon="1.98804">
        <ele>300.38</ele>
        <time>2020-11-26T14:05:27.411Z</time>
      </trkpt>
      <trkpt lat="44.56348" lon="1.98802">
        <ele>304.06</ele>
        <time>2020-11-26T14:05:43.000Z</time>
      </trkpt>
      <trkpt lat="44.56346" lon="1.98791">
        <ele>305.28</ele>
        <time>2020-11-26T14:05:53.000Z</time>
      </trkpt>
      <trkpt lat="44.56348" lon="1.98786">
        <ele>306.98</ele>
        <time>2020-11-26T14:06:03.000Z</time>
      </trkpt>
      <trkpt lat="44.56349" lon="1.98786">
        <ele>305.28</ele>
        <time>2020-11-26T14:06:13.000Z</time>
      </trkpt>
      <trkpt lat="44.56351" lon="1.98787">
        <ele>305.28</ele>
        <time>2020-11-26T14:06:23.000Z</time>
      </trkpt>
      <trkpt lat="44.56352" lon="1.98785">
        <ele>305.28</ele>
        <time>2020-11-26T14:06:33.000Z</time>
      </trkpt>
      <trkpt lat="44.56351" lon="1.98783">
        <ele>305.28</ele>
        <time>2020-11-26T14:06:43.000Z</time>
      </trkpt>
      <trkpt lat="44.56351" lon="1.98783">
        <ele>305.28</ele>
        <time>2020-11-26T14:06:49.000Z</time>
      </trkpt>
      <trkpt lat="44.56347" lon="1.98779">
        <ele>305.28</ele>
        <time>2020-11-26T12:40:36.000Z</time>
      </trkpt>
      <trkpt lat="44.56347" lon="1.98779">
        <ele>305.28</ele>
        <time>2020-11-26T12:40:36.000Z</time>
      </trkpt>
      <trkpt lat="44.56347" lon="1.98779">
        <ele>305.28</ele>
        <time>2020-11-26T12:40:36.000Z</time>
      </trkpt>
      <trkpt lat="44.56346" lon="1.98779">
        <ele>305.28</ele>
        <time>2020-11-26T12:41:13.000Z</time>
      </trkpt>
      <trkpt lat="44.56344" lon="1.9879">
        <ele>305.28</ele>
        <time>2020-11-26T12:41:22.566Z</time>
      </trkpt>
      <trkpt lat="44.56347" lon="1.98796">
        <ele>305.28</ele>
        <time>2020-11-26T12:41:33.000Z</time>
      </trkpt>
    </trkseg>
  </trk>
</gpx>